Time;durP1;ratioP1;P1;durP2;ratioP2;P2;SDS_P1;SDS_P2;PMS_P1;PMS_P2;Temp;Humidity;BMP_temperature;BMP_pressure;BME280_temperature;BME280_humidity;BME280_pressure;Samples;Min_cycle;Max_cycle;Signal;HPM_P1;HPM_P2
2023/03/14 00:00:16;;;;;;;7.38;3.90;;;10.70;99.90;;;;;;2086321;28;20020;-75
2023/03/14 00:01:20;;;;;;;5.47;3.22;;;10.70;99.90;;;;;;2090570;28;20518;-75
2023/03/14 00:02:20;;;;;;;4.40;2.45;;;10.70;99.90;;;;;;2081300;28;20196;-74
2023/03/14 00:03:21;;;;;;;6.47;3.42;;;10.70;99.90;;;;;;2083349;28;20036;-74
2023/03/14 00:04:21;;;;;;;4.35;2.65;;;10.70;99.90;;;;;;2090169;28;20024;-74
2023/03/14 00:05:22;;;;;;;4.15;3.10;;;10.70;99.90;;;;;;2090693;28;20052;-74
2023/03/14 00:06:23;;;;;;;4.15;2.72;;;10.70;99.90;;;;;;2082194;28;20116;-75
2023/03/14 00:07:24;;;;;;;4.10;2.67;;;10.70;99.90;;;;;;2077404;28;20072;-74
2023/03/14 00:08:25;;;;;;;5.85;3.20;;;10.70;99.90;;;;;;2080015;28;20033;-75
2023/03/14 00:09:26;;;;;;;7.07;3.80;;;10.70;99.90;;;;;;2084042;28;20036;-75
2023/03/14 00:10:27;;;;;;;7.35;3.80;;;10.80;99.90;;;;;;2086540;28;20112;-76
2023/03/14 00:11:27;;;;;;;4.18;2.90;;;10.70;99.90;;;;;;2086552;28;20029;-75
2023/03/14 00:12:28;;;;;;;5.07;3.30;;;10.70;99.90;;;;;;2093414;28;20056;-75
2023/03/14 00:13:28;;;;;;;4.30;3.22;;;10.70;99.90;;;;;;2091252;28;20028;-75
2023/03/14 00:14:30;;;;;;;9.18;4.88;;;10.70;99.90;;;;;;2086869;28;20538;-75
2023/03/14 00:15:35;;;;;;;10.20;5.07;;;10.70;99.90;;;;;;2090645;28;20060;-75
2023/03/14 00:16:35;;;;;;;7.60;4.35;;;10.70;99.90;;;;;;2090343;28;20507;-75
2023/03/14 00:17:37;;;;;;;6.15;3.60;;;10.70;99.90;;;;;;2084192;28;20036;-75
2023/03/14 00:18:38;;;;;;;4.68;3.15;;;10.70;99.90;;;;;;2082795;28;20033;-75
2023/03/14 00:19:38;;;;;;;5.95;3.40;;;10.70;99.90;;;;;;2087660;28;20103;-74
2023/03/14 00:20:39;;;;;;;6.20;3.30;;;10.70;99.90;;;;;;2091293;28;20048;-75
2023/03/14 00:21:39;;;;;;;4.82;3.30;;;10.70;99.90;;;;;;2093624;28;20027;-75
2023/03/14 00:22:41;;;;;;;5.30;3.55;;;10.70;99.90;;;;;;2091264;28;20483;-75
2023/03/14 00:23:42;;;;;;;7.88;4.18;;;10.70;99.90;;;;;;2078124;28;20040;-74
2023/03/14 00:24:43;;;;;;;4.47;3.40;;;10.70;99.90;;;;;;2090339;28;20032;-75
2023/03/14 00:25:43;;;;;;;4.75;3.20;;;10.70;99.90;;;;;;2092745;28;20569;-75
2023/03/14 00:26:44;;;;;;;5.00;3.22;;;10.70;99.90;;;;;;2084144;28;20025;-75
2023/03/14 00:27:44;;;;;;;5.82;3.38;;;10.70;99.90;;;;;;2089017;28;20055;-75
2023/03/14 00:28:51;;;;;;;5.38;3.45;;;10.70;99.90;;;;;;2086996;28;20044;-71
2023/03/14 00:29:52;;;;;;;4.15;3.05;;;10.70;99.90;;;;;;2086097;28;20095;-75
2023/03/14 00:30:52;;;;;;;5.13;2.97;;;10.70;99.90;;;;;;2075345;28;20056;-87
2023/03/14 00:31:53;;;;;;;6.35;3.70;;;10.70;99.90;;;;;;2082813;28;20429;-87
2023/03/14 00:32:54;;;;;;;7.10;4.60;;;10.70;99.90;;;;;;2082844;28;20025;-87
2023/03/14 00:33:54;;;;;;;7.47;3.80;;;10.70;99.90;;;;;;2093386;28;20024;-89
2023/03/14 00:34:55;;;;;;;5.30;3.72;;;10.70;99.90;;;;;;2082946;28;20137;-87
2023/03/14 00:36:00;;;;;;;7.15;4.00;;;10.60;99.90;;;;;;2091516;28;20056;-87
2023/03/14 00:37:03;;;;;;;4.68;3.22;;;10.60;99.90;;;;;;2091504;28;20050;-88
2023/03/14 00:38:04;;;;;;;4.57;3.10;;;10.60;99.90;;;;;;2091199;28;20185;-89
2023/03/14 00:39:04;;;;;;;5.50;3.33;;;10.60;99.90;;;;;;2089404;28;20151;-83
2023/03/14 00:40:07;;;;;;;6.18;3.75;;;10.60;99.90;;;;;;2092860;28;20086;-88
2023/03/14 00:41:11;;;;;;;6.85;3.97;;;10.60;99.90;;;;;;2083796;28;20032;-85
2023/03/14 00:42:11;;;;;;;4.57;3.50;;;10.50;99.90;;;;;;2090724;28;20648;-87
2023/03/14 00:43:12;;;;;;;6.30;4.00;;;10.50;99.90;;;;;;2090805;28;20036;-91
2023/03/14 00:44:12;;;;;;;8.45;4.20;;;10.50;99.90;;;;;;2091609;28;20052;-87
2023/03/14 00:45:13;;;;;;;5.82;4.10;;;10.50;99.90;;;;;;2083196;28;20032;-87
2023/03/14 00:46:14;;;;;;;4.43;3.60;;;10.40;99.90;;;;;;2074049;28;20067;-87
2023/03/14 00:47:14;;;;;;;4.18;3.10;;;10.40;99.90;;;;;;2090707;28;20119;-87
2023/03/14 00:48:18;;;;;;;6.00;3.95;;;10.40;99.90;;;;;;2091274;28;20025;-87
2023/03/14 00:49:19;;;;;;;5.15;3.90;;;10.40;99.90;;;;;;2084752;28;20025;-88
2023/03/14 00:50:19;;;;;;;6.80;3.70;;;10.40;99.90;;;;;;2091281;28;20055;-87
2023/03/14 00:51:20;;;;;;;4.93;4.10;;;10.30;99.90;;;;;;2090689;28;20020;-85
2023/03/14 00:52:20;;;;;;;5.50;4.18;;;10.30;99.90;;;;;;2082558;28;20029;-86
2023/03/14 00:53:21;;;;;;;7.28;4.63;;;10.30;99.90;;;;;;2084438;28;20281;-87
2023/03/14 00:54:22;;;;;;;5.20;4.18;;;10.30;99.90;;;;;;2085985;28;20526;-86
2023/03/14 00:55:22;;;;;;;5.13;4.20;;;10.30;99.90;;;;;;2090250;28;20021;-86
2023/03/14 00:56:23;;;;;;;9.27;5.95;;;10.30;99.90;;;;;;2090435;28;20036;-86
2023/03/14 00:57:23;;;;;;;6.95;4.60;;;10.30;99.90;;;;;;2092014;28;20082;-87
2023/03/14 00:58:24;;;;;;;6.93;4.22;;;10.30;99.90;;;;;;2090262;28;20381;-86
2023/03/14 00:59:24;;;;;;;15.93;8.00;;;10.30;99.90;;;;;;2082067;28;20100;-85
2023/03/14 01:00:25;;;;;;;11.73;6.45;;;10.40;99.90;;;;;;2070794;28;20468;-84
2023/03/14 01:01:26;;;;;;;10.32;6.00;;;10.40;99.90;;;;;;2092363;28;20084;-87
2023/03/14 01:02:26;;;;;;;8.63;5.25;;;10.40;99.90;;;;;;2082299;28;20301;-87
2023/03/14 01:03:27;;;;;;;6.40;4.38;;;10.30;99.90;;;;;;2079969;28;20036;-86
2023/03/14 01:04:27;;;;;;;7.15;4.20;;;10.30;99.90;;;;;;2078059;28;20028;-87
2023/03/14 01:05:29;;;;;;;5.93;4.30;;;10.30;99.90;;;;;;2082293;28;20059;-85
2023/03/14 01:06:30;;;;;;;9.10;5.65;;;10.30;99.90;;;;;;2076017;28;20064;-86
2023/03/14 01:07:31;;;;;;;10.32;5.30;;;10.30;99.90;;;;;;2068882;28;20099;-87
2023/03/14 01:08:32;;;;;;;8.60;4.85;;;10.30;99.90;;;;;;2069288;28;20026;-86
2023/03/14 01:09:33;;;;;;;6.15;5.05;;;10.30;99.90;;;;;;2088109;28;20024;-86
2023/03/14 01:10:37;;;;;;;5.32;4.53;;;10.30;99.90;;;;;;2084293;28;20488;-85
2023/03/14 01:11:39;;;;;;;6.25;4.82;;;10.30;99.90;;;;;;2072614;28;20029;-87
2023/03/14 01:12:40;;;;;;;6.20;4.88;;;10.30;99.90;;;;;;2063957;28;20565;-85
2023/03/14 01:13:41;;;;;;;7.18;5.20;;;10.30;99.90;;;;;;2070894;28;20025;-85
2023/03/14 01:14:42;;;;;;;7.20;5.40;;;10.30;99.90;;;;;;2081954;28;20025;-85
2023/03/14 01:15:42;;;;;;;9.38;5.95;;;10.30;99.90;;;;;;2088415;28;20033;-87
2023/03/14 01:16:45;;;;;;;9.63;5.90;;;10.30;99.90;;;;;;2091198;28;20032;-87
2023/03/14 01:17:46;;;;;;;7.78;5.40;;;10.20;99.90;;;;;;2093047;28;20031;-85
2023/03/14 01:18:47;;;;;;;6.05;4.90;;;10.20;99.90;;;;;;2090677;28;20115;-88
2023/03/14 01:19:48;;;;;;;5.40;4.72;;;10.20;99.90;;;;;;2090415;28;20032;-87
2023/03/14 01:20:49;;;;;;;6.18;4.80;;;10.20;99.90;;;;;;2090208;28;20133;-86
2023/03/14 01:21:50;;;;;;;8.98;5.60;;;10.20;99.90;;;;;;2092447;28;20040;-86
2023/03/14 01:22:50;;;;;;;8.10;5.75;;;10.20;99.90;;;;;;2081320;28;20052;-87
2023/03/14 01:23:53;;;;;;;7.78;5.30;;;10.20;99.90;;;;;;2078483;28;20029;-86
2023/03/14 01:24:53;;;;;;;9.27;5.75;;;10.20;99.90;;;;;;2082132;28;20059;-87
2023/03/14 01:25:54;;;;;;;16.77;8.70;;;10.20;99.90;;;;;;2089166;28;20036;-85
2023/03/14 01:26:54;;;;;;;8.57;6.45;;;10.20;99.90;;;;;;2078503;28;20025;-84
2023/03/14 01:27:57;;;;;;;7.32;5.60;;;10.20;99.90;;;;;;2083284;28;20039;-84
2023/03/14 01:28:58;;;;;;;6.43;5.50;;;10.20;99.90;;;;;;2081327;28;20052;-85
2023/03/14 01:29:59;;;;;;;5.90;5.28;;;10.20;99.90;;;;;;2090216;28;20020;-85
2023/03/14 01:31:07;;;;;;;5.78;4.78;;;10.20;99.90;;;;;;2090300;28;20131;-84
2023/03/14 01:32:07;;;;;;;7.13;5.20;;;10.20;99.90;;;;;;2092288;28;20036;-85
2023/03/14 01:33:08;;;;;;;8.35;5.60;;;10.20;99.90;;;;;;2090065;28;20091;-85
2023/03/14 01:34:09;;;;;;;6.10;5.50;;;10.20;99.90;;;;;;2080890;28;20148;-84
2023/03/14 01:35:09;;;;;;;6.45;5.20;;;10.20;99.90;;;;;;2082547;28;20575;-86
2023/03/14 01:36:11;;;;;;;6.43;5.05;;;10.20;99.90;;;;;;2081883;28;20090;-85
2023/03/14 01:37:11;;;;;;;7.78;5.30;;;10.20;99.90;;;;;;2082033;28;20029;-85
2023/03/14 01:38:12;;;;;;;6.60;4.88;;;10.20;99.90;;;;;;2082035;28;20129;-86
2023/03/14 01:39:13;;;;;;;5.80;4.90;;;10.20;99.90;;;;;;2084104;28;20561;-85
2023/03/14 01:40:16;;;;;;;5.85;5.25;;;10.20;99.90;;;;;;2090393;28;20579;-86
2023/03/14 01:41:22;;;;;;;7.05;5.43;;;10.20;99.90;;;;;;2088451;28;20047;-86
2023/03/14 01:42:23;;;;;;;6.80;5.60;;;10.20;99.90;;;;;;2077686;28;20027;-87
2023/03/14 01:43:24;;;;;;;6.97;5.40;;;10.20;99.90;;;;;;2082293;28;20100;-87
2023/03/14 01:44:24;;;;;;;5.93;4.85;;;10.20;99.90;;;;;;2092362;28;20698;-87
2023/03/14 01:45:56;;;;;;;6.00;5.25;;;10.20;99.90;;;;;;2079278;28;20365;-85
2023/03/14 01:46:56;;;;;;;5.72;5.13;;;10.20;99.90;;;;;;2077495;28;20125;-88
2023/03/14 01:47:57;;;;;;;8.02;5.85;;;10.20;99.90;;;;;;2081481;28;20037;-84
2023/03/14 01:49:08;;;;;;;5.95;5.13;;;10.20;99.90;;;;;;2090204;28;20074;-84
2023/03/14 01:50:11;;;;;;;6.80;5.70;;;10.20;99.90;;;;;;2074818;28;20033;-87
2023/03/14 01:51:20;;;;;;;5.30;4.80;;;10.20;99.90;;;;;;2082079;28;20036;-85
2023/03/14 01:52:31;;;;;;;5.95;5.35;;;10.20;99.90;;;;;;2082830;28;20588;-85
2023/03/14 01:53:32;;;;;;;6.25;5.00;;;10.20;99.90;;;;;;2090357;28;20017;-84
2023/03/14 01:54:40;;;;;;;5.90;5.30;;;10.20;99.90;;;;;;2093144;28;20099;-84
2023/03/14 01:55:42;;;;;;;5.15;4.65;;;10.20;99.90;;;;;;2083156;28;20096;-84
2023/03/14 01:56:46;;;;;;;5.68;5.00;;;10.20;99.90;;;;;;2068902;28;20042;-85
2023/03/14 01:57:58;;;;;;;5.60;5.07;;;10.30;99.90;;;;;;2074505;28;20071;-83
2023/03/14 01:59:02;;;;;;;5.35;4.85;;;10.40;99.90;;;;;;2070633;28;20036;-84
2023/03/14 02:00:13;;;;;;;5.40;4.90;;;10.40;99.90;;;;;;2070884;28;20069;-84
2023/03/14 02:01:17;;;;;;;5.60;5.00;;;10.50;99.90;;;;;;2090387;28;20107;-84
2023/03/14 02:02:18;;;;;;;6.43;5.10;;;10.60;99.90;;;;;;2090268;28;20043;-85
2023/03/14 02:03:21;;;;;;;5.30;4.57;;;10.60;99.90;;;;;;2090728;28;20099;-84
2023/03/14 02:04:23;;;;;;;6.30;4.85;;;10.70;99.90;;;;;;2087250;28;20028;-83
2023/03/14 02:05:32;;;;;;;5.38;4.80;;;10.70;99.90;;;;;;2085641;28;20027;-84
2023/03/14 02:06:48;;;;;;;5.70;4.70;;;10.70;99.90;;;;;;2074725;28;20435;-85
2023/03/14 02:07:53;;;;;;;5.75;4.70;;;10.70;99.90;;;;;;2076540;28;20459;-84
2023/03/14 02:09:00;;;;;;;6.15;5.03;;;10.70;99.90;;;;;;2073645;28;20488;-85
2023/03/14 02:10:05;;;;;;;5.32;4.82;;;10.70;99.90;;;;;;2084721;28;20073;-84
2023/03/14 02:11:08;;;;;;;5.13;4.63;;;10.70;99.90;;;;;;2082760;28;20033;-87
2023/03/14 02:12:21;;;;;;;4.80;4.30;;;10.70;99.90;;;;;;2077421;28;20573;-85
2023/03/14 02:13:26;;;;;;;4.72;4.22;;;10.70;99.90;;;;;;2076096;28;20037;-85
2023/03/14 02:14:47;;;;;;;4.70;4.20;;;10.70;99.90;;;;;;2078330;28;20037;-85
2023/03/14 02:16:15;;;;;;;4.50;4.00;;;10.70;99.90;;;;;;2078140;28;20041;-83
2023/03/14 02:17:26;;;;;;;4.13;3.72;;;10.80;99.90;;;;;;2092220;28;20054;-70
2023/03/14 02:18:45;;;;;;;3.72;3.42;;;10.80;99.90;;;;;;2088392;28;20456;-72
2023/03/14 02:20:32;;;;;;;3.85;3.55;;;10.80;99.90;;;;;;2088579;28;20025;-70
2023/03/14 02:22:05;;;;;;;4.00;3.38;;;10.80;99.90;;;;;;2084342;28;20430;-70
2023/03/14 02:23:15;;;;;;;3.65;3.00;;;10.80;99.90;;;;;;2071275;28;20040;-71
2023/03/14 02:24:33;;;;;;;3.22;2.92;;;10.80;99.90;;;;;;2070998;28;20060;-71
2023/03/14 02:25:47;;;;;;;3.97;2.92;;;10.80;99.90;;;;;;2085870;28;20032;-71
2023/03/14 02:27:26;;;;;;;2.90;2.70;;;10.80;99.90;;;;;;2082717;28;20067;-73
2023/03/14 02:28:27;;;;;;;3.20;2.90;;;10.80;99.90;;;;;;2060957;28;20069;-72
2023/03/14 02:29:35;;;;;;;2.88;2.58;;;10.80;99.90;;;;;;2060560;28;20488;-70
2023/03/14 02:30:38;;;;;;;3.38;2.40;;;10.80;99.90;;;;;;2060915;28;20496;-68
2023/03/14 02:31:39;;;;;;;2.53;2.30;;;10.80;99.90;;;;;;2061645;28;20536;-71
2023/03/14 02:32:43;;;;;;;2.30;2.10;;;10.80;99.90;;;;;;2059451;28;20373;-71
2023/03/14 02:33:44;;;;;;;3.25;2.65;;;10.90;99.90;;;;;;2041228;28;20074;-71
2023/03/14 02:34:50;;;;;;;3.10;1.95;;;10.90;99.90;;;;;;2069565;28;20232;-70
2023/03/14 02:35:56;;;;;;;2.33;2.13;;;10.90;99.90;;;;;;2078169;28;20116;-71
2023/03/14 02:36:58;;;;;;;2.35;2.10;;;10.90;99.90;;;;;;2079044;28;20358;-70
2023/03/14 02:38:33;;;;;;;3.55;2.30;;;10.90;99.90;;;;;;2072826;28;20087;-70
2023/03/14 02:39:44;;;;;;;3.03;2.13;;;10.80;99.90;;;;;;2077632;28;20165;-70
2023/03/14 02:40:45;;;;;;;2.13;1.92;;;10.80;99.90;;;;;;2075179;28;20033;-71
2023/03/14 02:41:48;;;;;;;2.00;1.80;;;10.80;99.90;;;;;;2091259;28;20025;-71
2023/03/14 02:42:49;;;;;;;1.80;1.70;;;10.80;99.90;;;;;;2083415;28;20828;-71
2023/03/14 02:43:51;;;;;;;1.90;1.80;;;10.70;99.90;;;;;;2091177;28;20017;-71
2023/03/14 02:44:54;;;;;;;1.88;1.70;;;10.80;99.90;;;;;;2082957;28;20070;-70
2023/03/14 02:45:55;;;;;;;2.25;1.98;;;10.70;99.90;;;;;;2083352;28;20037;-70
2023/03/14 02:46:57;;;;;;;2.10;1.90;;;10.70;99.90;;;;;;2085156;28;20036;-72
2023/03/14 02:48:04;;;;;;;2.00;1.80;;;10.70;99.90;;;;;;2083015;28;20174;-71
2023/03/14 02:49:14;;;;;;;1.80;1.70;;;10.70;99.90;;;;;;2083141;28;20044;-71
2023/03/14 02:50:20;;;;;;;2.20;1.40;;;10.70;99.90;;;;;;2084047;28;20041;-71
2023/03/14 02:51:21;;;;;;;1.67;1.50;;;10.70;99.90;;;;;;2091171;28;20044;-72
2023/03/14 02:52:22;;;;;;;1.52;1.42;;;10.80;99.90;;;;;;2091651;28;20029;-70
2023/03/14 02:53:29;;;;;;;1.33;1.23;;;10.80;99.90;;;;;;2091141;28;20471;-71
2023/03/14 02:54:32;;;;;;;1.30;1.20;;;10.90;99.90;;;;;;2077842;28;20033;-71
2023/03/14 02:55:33;;;;;;;2.13;1.35;;;11.00;99.90;;;;;;2067571;28;20036;-71
2023/03/14 02:56:39;;;;;;;1.50;1.40;;;11.00;99.90;;;;;;2078969;28;20357;-71
2023/03/14 02:57:40;;;;;;;1.40;1.30;;;11.00;99.90;;;;;;2082978;28;20110;-72
2023/03/14 02:58:41;;;;;;;1.40;1.30;;;11.10;99.90;;;;;;2091164;28;20570;-69
2023/03/14 03:00:08;;;;;;;1.42;1.33;;;11.00;99.90;;;;;;2084496;28;21430;-72
2023/03/14 03:01:11;;;;;;;1.40;1.30;;;11.00;99.90;;;;;;2086234;28;20032;-71
2023/03/14 03:02:12;;;;;;;1.90;1.40;;;11.00;99.90;;;;;;2082827;28;20053;-71
2023/03/14 03:03:14;;;;;;;1.63;1.30;;;11.00;99.90;;;;;;2084563;28;20025;-70
2023/03/14 03:04:15;;;;;;;2.22;1.30;;;11.00;99.90;;;;;;2074384;28;20043;-70
2023/03/14 03:05:15;;;;;;;1.33;1.20;;;10.90;99.90;;;;;;2082800;28;20037;-70
2023/03/14 03:06:16;;;;;;;1.27;1.17;;;10.90;99.90;;;;;;2091742;28;20087;-71
2023/03/14 03:07:16;;;;;;;1.33;1.20;;;10.90;99.90;;;;;;2093669;28;20024;-72
2023/03/14 03:08:21;;;;;;;1.00;1.00;;;10.90;99.90;;;;;;2085204;28;20032;-72
2023/03/14 03:09:22;;;;;;;1.00;1.00;;;10.90;99.90;;;;;;2087443;28;20329;-72
2023/03/14 03:10:23;;;;;;;1.80;1.08;;;10.90;99.90;;;;;;2090951;28;20484;-72
2023/03/14 03:11:24;;;;;;;1.42;1.15;;;10.90;99.90;;;;;;2082674;28;20025;-72
2023/03/14 03:12:25;;;;;;;1.20;1.10;;;10.90;99.90;;;;;;2076720;28;20133;-72
2023/03/14 03:13:26;;;;;;;1.30;1.20;;;10.90;99.90;;;;;;2090929;28;20029;-72
2023/03/14 03:14:29;;;;;;;2.33;1.50;;;10.90;99.90;;;;;;2086088;28;20033;-72
2023/03/14 03:15:33;;;;;;;1.40;1.30;;;10.90;99.90;;;;;;2082918;28;20509;-72
2023/03/14 03:16:33;;;;;;;1.80;1.38;;;10.90;99.90;;;;;;2082790;28;20047;-72
2023/03/14 03:17:34;;;;;;;2.75;1.80;;;10.90;99.90;;;;;;2082865;28;20393;-72
2023/03/14 03:18:35;;;;;;;2.75;1.83;;;10.90;99.90;;;;;;2093128;28;20056;-71
2023/03/14 03:19:35;;;;;;;2.60;1.67;;;10.90;99.90;;;;;;2090978;28;20412;-71
2023/03/14 03:20:36;;;;;;;3.42;2.30;;;10.90;99.90;;;;;;2082674;28;20017;-71
2023/03/14 03:21:36;;;;;;;5.13;2.88;;;10.90;99.90;;;;;;2084839;28;20310;-71
2023/03/14 03:22:39;;;;;;;4.78;2.75;;;10.90;99.90;;;;;;2076637;28;20492;-71
2023/03/14 03:23:40;;;;;;;4.22;2.60;;;10.90;99.90;;;;;;2078268;28;20132;-71
2023/03/14 03:24:40;;;;;;;3.75;2.30;;;10.80;99.90;;;;;;2090952;28;20488;-71
2023/03/14 03:25:41;;;;;;;3.25;1.90;;;10.80;99.90;;;;;;2090962;28;20025;-71
2023/03/14 03:26:42;;;;;;;2.63;1.85;;;10.80;99.90;;;;;;2082618;28;20030;-71
2023/03/14 03:27:45;;;;;;;2.58;1.90;;;10.80;99.90;;;;;;2073877;28;20515;-71
2023/03/14 03:28:46;;;;;;;2.70;1.70;;;10.80;99.90;;;;;;2081552;28;20100;-71
2023/03/14 03:29:48;;;;;;;2.10;1.40;;;10.80;99.90;;;;;;2090860;28;20086;-71
2023/03/14 03:30:49;;;;;;;1.33;1.23;;;10.80;99.90;;;;;;2090559;28;20519;-71
2023/03/14 03:31:49;;;;;;;1.30;1.20;;;10.80;99.90;;;;;;2093720;28;20242;-71
2023/03/14 03:32:51;;;;;;;1.25;1.15;;;10.80;99.90;;;;;;2084955;28;20049;-71
2023/03/14 03:33:51;;;;;;;1.95;1.50;;;10.80;99.90;;;;;;2085234;28;20133;-71
2023/03/14 03:34:52;;;;;;;1.25;1.13;;;10.80;99.90;;;;;;2090688;28;20033;-70
2023/03/14 03:35:53;;;;;;;1.27;1.17;;;10.90;99.90;;;;;;2090863;28;20052;-70
2023/03/14 03:37:00;;;;;;;1.30;1.20;;;10.80;99.90;;;;;;2083675;28;20044;-71
2023/03/14 03:38:03;;;;;;;2.03;1.42;;;10.80;99.90;;;;;;2085114;28;20357;-71
2023/03/14 03:39:05;;;;;;;1.30;1.20;;;10.90;99.90;;;;;;2075075;28;20087;-71
2023/03/14 03:40:07;;;;;;;2.75;1.60;;;10.90;99.90;;;;;;2074522;28;20025;-72
2023/03/14 03:41:09;;;;;;;2.17;1.65;;;10.90;99.90;;;;;;2072016;28;20254;-70
2023/03/14 03:42:10;;;;;;;2.03;1.60;;;10.80;99.90;;;;;;2076970;28;20032;-72
2023/03/14 03:43:11;;;;;;;1.92;1.40;;;10.80;99.90;;;;;;2084606;28;20080;-71
2023/03/14 03:44:16;;;;;;;2.58;1.90;;;10.80;99.90;;;;;;2083134;28;20051;-72
2023/03/14 03:45:17;;;;;;;1.30;1.20;;;10.80;99.90;;;;;;2082627;28;20033;-71
2023/03/14 03:46:25;;;;;;;1.40;1.30;;;10.80;99.90;;;;;;2074523;28;20116;-72
2023/03/14 03:47:27;;;;;;;1.10;1.00;;;10.80;99.90;;;;;;2074398;28;20103;-71
2023/03/14 03:48:30;;;;;;;1.85;1.00;;;10.80;99.90;;;;;;2076482;28;20033;-71
2023/03/14 03:49:32;;;;;;;0.93;0.90;;;10.80;99.90;;;;;;2082427;28;20140;-70
2023/03/14 03:50:33;;;;;;;1.02;0.90;;;10.80;99.90;;;;;;2090982;28;20086;-70
2023/03/14 03:51:33;;;;;;;0.95;0.90;;;10.80;99.90;;;;;;2081873;28;20028;-71
2023/03/14 03:52:34;;;;;;;1.00;0.90;;;10.80;99.90;;;;;;2070302;28;20032;-71
2023/03/14 03:53:35;;;;;;;0.90;0.90;;;10.80;99.90;;;;;;2075833;28;20033;-71
2023/03/14 03:54:40;;;;;;;1.35;1.20;;;10.80;99.90;;;;;;2085113;28;20029;-70
2023/03/14 03:55:42;;;;;;;1.55;1.10;;;10.70;99.90;;;;;;2074430;28;20026;-72
2023/03/14 03:56:43;;;;;;;1.25;1.00;;;10.70;99.90;;;;;;2066155;28;20026;-72
2023/03/14 03:57:43;;;;;;;3.00;1.52;;;10.70;99.90;;;;;;2073312;28;20103;-71
2023/03/14 03:58:45;;;;;;;1.83;1.40;;;10.60;99.90;;;;;;2080452;28;20049;-72
2023/03/14 03:59:46;;;;;;;1.42;1.00;;;10.60;99.90;;;;;;2083218;28;20024;-71
2023/03/14 04:00:47;;;;;;;1.10;1.00;;;10.70;99.90;;;;;;2089587;28;20332;-71
2023/03/14 04:01:48;;;;;;;1.13;0.80;;;10.80;99.90;;;;;;2082731;28;20029;-71
2023/03/14 04:02:48;;;;;;;0.80;0.80;;;10.80;99.90;;;;;;2082546;28;20276;-71
2023/03/14 04:03:51;;;;;;;0.98;0.77;;;10.80;99.90;;;;;;2077559;28;20539;-71
2023/03/14 04:04:53;;;;;;;0.98;0.82;;;10.80;99.90;;;;;;2074136;28;20052;-71
2023/03/14 04:06:01;;;;;;;0.75;0.75;;;10.80;99.90;;;;;;2090635;28;20119;-71
2023/03/14 04:07:02;;;;;;;1.00;0.80;;;10.80;99.90;;;;;;2090722;28;20570;-71
2023/03/14 04:08:04;;;;;;;0.90;0.90;;;10.70;99.90;;;;;;2070540;28;20034;-71
2023/03/14 04:09:04;;;;;;;1.05;0.95;;;10.70;99.90;;;;;;2064555;28;20053;-71
2023/03/14 04:10:16;;;;;;;1.27;1.17;;;10.70;99.90;;;;;;2083734;28;20082;-72
2023/03/14 04:11:25;;;;;;;1.20;1.10;;;10.70;99.90;;;;;;2090537;28;20028;-71
2023/03/14 04:12:29;;;;;;;2.88;1.30;;;10.70;99.90;;;;;;2080446;28;20028;-71
2023/03/14 04:13:50;;;;;;;1.30;1.20;;;10.60;99.90;;;;;;2084777;28;20044;-71
2023/03/14 04:14:50;;;;;;;1.13;1.00;;;10.60;99.90;;;;;;2086410;28;20030;-71
2023/03/14 04:15:56;;;;;;;1.00;1.00;;;10.70;99.90;;;;;;2082860;28;20040;-71
2023/03/14 04:16:59;;;;;;;1.00;1.00;;;10.70;99.90;;;;;;2079922;28;20025;-71
2023/03/14 04:18:00;;;;;;;1.13;1.02;;;10.70;99.90;;;;;;2086225;28;20094;-73
2023/03/14 04:19:02;;;;;;;1.00;0.90;;;10.70;99.90;;;;;;2084205;28;20039;-71
2023/03/14 04:20:04;;;;;;;1.25;0.82;;;10.80;99.90;;;;;;2075189;28;20051;-71
2023/03/14 04:21:09;;;;;;;0.90;0.90;;;10.80;99.90;;;;;;2083005;28;20167;-72
2023/03/14 04:22:18;;;;;;;0.93;0.90;;;10.80;99.90;;;;;;2082241;28;20029;-71
2023/03/14 04:23:25;;;;;;;0.80;0.80;;;10.80;99.90;;;;;;2074716;28;20029;-71
2023/03/14 04:24:25;;;;;;;0.90;0.90;;;10.80;99.90;;;;;;2080703;28;20140;-72
2023/03/14 04:25:26;;;;;;;1.00;0.98;;;10.80;99.90;;;;;;2082247;28;20033;-72
2023/03/14 04:26:30;;;;;;;0.98;0.95;;;10.80;99.90;;;;;;2080666;28;20460;-72
2023/03/14 04:27:31;;;;;;;1.13;0.90;;;10.90;99.90;;;;;;2085353;28;20555;-72
2023/03/14 04:28:35;;;;;;;0.85;0.85;;;10.80;99.90;;;;;;2084249;28;20131;-72
2023/03/14 04:29:36;;;;;;;0.93;0.90;;;10.90;99.90;;;;;;2074500;28;20030;-72
2023/03/14 04:30:36;;;;;;;0.95;0.90;;;10.90;99.90;;;;;;2080126;28;20021;-71
2023/03/14 04:31:43;;;;;;;1.30;1.00;;;10.90;99.90;;;;;;2082913;28;20128;-71
2023/03/14 04:32:44;;;;;;;1.73;1.00;;;10.90;99.90;;;;;;2082277;28;20087;-71
2023/03/14 04:33:45;;;;;;;0.90;0.90;;;10.90;99.90;;;;;;2075297;28;20489;-71
2023/03/14 04:34:46;;;;;;;1.45;1.00;;;10.90;99.90;;;;;;2081100;28;20032;-71
2023/03/14 04:35:47;;;;;;;1.73;1.10;;;10.90;99.90;;;;;;2076716;28;22865;-71
2023/03/14 04:36:49;;;;;;;1.10;1.00;;;10.90;99.90;;;;;;2082294;28;20029;-73
2023/03/14 04:37:54;;;;;;;0.95;0.80;;;10.90;99.90;;;;;;2082386;28;20047;-70
2023/03/14 04:38:56;;;;;;;1.10;0.98;;;10.90;99.90;;;;;;2092472;28;20495;-70
2023/03/14 04:39:58;;;;;;;1.30;0.73;;;10.90;99.90;;;;;;2067864;28;20657;-71
2023/03/14 04:41:02;;;;;;;1.27;0.93;;;10.80;99.90;;;;;;2069522;28;20027;-72
2023/03/14 04:42:05;;;;;;;1.38;1.10;;;10.80;99.90;;;;;;2062560;28;20084;-72
2023/03/14 04:43:09;;;;;;;3.65;1.98;;;10.80;99.90;;;;;;2077685;28;20029;-72
2023/03/14 04:44:10;;;;;;;2.63;1.10;;;10.80;99.90;;;;;;2082327;28;20028;-71
2023/03/14 04:45:11;;;;;;;1.40;1.00;;;10.80;99.90;;;;;;2084110;28;20028;-72
2023/03/14 04:46:13;;;;;;;1.52;1.00;;;10.80;99.90;;;;;;2082154;28;20028;-72
2023/03/14 04:47:14;;;;;;;1.70;0.98;;;10.80;99.90;;;;;;2082020;28;20456;-71
2023/03/14 04:48:15;;;;;;;1.10;0.90;;;10.80;99.90;;;;;;2064103;28;20588;-70
2023/03/14 04:49:17;;;;;;;3.08;1.10;;;10.90;99.90;;;;;;2079636;28;20509;-70
2023/03/14 04:50:18;;;;;;;1.00;0.90;;;11.00;99.90;;;;;;2077681;28;20611;-71
2023/03/14 04:51:22;;;;;;;0.95;0.90;;;11.10;99.90;;;;;;2061787;28;20373;-71
2023/03/14 04:52:23;;;;;;;1.65;1.00;;;11.10;99.90;;;;;;2072695;28;20032;-71
2023/03/14 04:53:23;;;;;;;2.13;0.90;;;11.20;99.90;;;;;;2079286;28;20040;-70
2023/03/14 04:54:27;;;;;;;1.63;0.98;;;11.20;99.90;;;;;;2084404;28;20118;-70
2023/03/14 04:55:32;;;;;;;3.08;1.00;;;11.20;99.90;;;;;;2075265;28;20031;-70
2023/03/14 04:56:32;;;;;;;1.98;1.00;;;11.20;99.90;;;;;;2073799;28;20919;-71
2023/03/14 04:57:35;;;;;;;1.90;1.27;;;11.20;99.90;;;;;;2081972;28;20036;-70
2023/03/14 04:58:35;;;;;;;2.78;0.90;;;11.30;99.90;;;;;;2090102;28;20051;-72
2023/03/14 04:59:37;;;;;;;2.33;1.10;;;11.20;99.90;;;;;;2089705;28;20025;-71
2023/03/14 05:01:02;;;;;;;1.23;1.00;;;11.20;99.90;;;;;;2087061;28;20072;-71
2023/03/14 05:02:14;;;;;;;1.75;1.20;;;11.20;99.90;;;;;;2075555;28;20441;-72
2023/03/14 05:03:23;;;;;;;3.78;1.27;;;11.20;99.90;;;;;;2076468;28;20336;-70
2023/03/14 05:04:47;;;;;;;3.80;1.30;;;11.20;99.90;;;;;;2067110;28;20041;-70
2023/03/14 05:06:07;;;;;;;3.80;1.10;;;11.20;99.90;;;;;;2090201;28;20029;-72
2023/03/14 05:07:33;;;;;;;2.33;1.20;;;11.20;99.90;;;;;;2076716;28;20044;-70
2023/03/14 05:08:54;;;;;;;3.80;1.38;;;11.10;99.90;;;;;;2077906;28;20561;-71
2023/03/14 05:10:10;;;;;;;3.10;1.35;;;11.10;99.90;;;;;;2080483;28;20357;-70
2023/03/14 05:11:33;;;;;;;1.70;1.20;;;11.10;99.90;;;;;;2083077;28;20399;-72
2023/03/14 05:12:53;;;;;;;;;;;11.10;99.90;;;;;;2088101;28;20060;-71
2023/03/14 05:14:17;;;;;;;3.10;1.20;;;11.00;99.90;;;;;;2086802;28;19920;-70
2023/03/14 05:15:31;;;;;;;2.90;1.30;;;11.00;99.90;;;;;;2088293;28;20414;-70
2023/03/14 05:16:47;;;;;;;2.28;1.40;;;11.10;99.90;;;;;;2080610;28;20539;-70
2023/03/14 05:18:12;;;;;;;4.90;1.65;;;11.00;99.90;;;;;;2089534;28;20027;-71
2023/03/14 05:19:38;;;;;;;3.35;1.38;;;11.10;99.90;;;;;;2076226;28;20423;-70
2023/03/14 05:21:05;;;;;;;5.70;1.42;;;11.00;99.90;;;;;;2067413;28;20367;-70
2023/03/14 05:22:26;;;;;;;3.22;1.17;;;11.10;99.90;;;;;;2084881;28;20039;-71
2023/03/14 05:23:52;;;;;;;3.85;1.50;;;11.20;99.90;;;;;;2074704;28;20036;-70
2023/03/14 05:25:07;;;;;;;3.72;1.30;;;11.20;99.90;;;;;;2080602;28;20499;-69
2023/03/14 05:26:26;;;;;;;3.15;1.35;;;11.20;99.90;;;;;;2087410;28;20154;-69
2023/03/14 05:27:40;;;;;;;3.65;1.60;;;11.20;99.90;;;;;;2089883;28;20515;-69
2023/03/14 05:29:00;;;;;;;3.72;1.58;;;11.20;99.90;;;;;;2091918;28;20148;-71
2023/03/14 05:30:33;;;;;;;2.38;1.33;;;11.20;99.90;;;;;;2068237;28;20401;-71
2023/03/14 05:31:52;;;;;;;5.57;1.67;;;11.20;99.90;;;;;;2080950;28;20055;-76
2023/03/14 05:33:12;;;;;;;3.08;1.50;;;11.20;99.90;;;;;;2088754;28;20041;-75
2023/03/14 05:34:22;;;;;;;4.38;1.40;;;11.20;99.90;;;;;;2085270;28;20033;-76
2023/03/14 05:35:38;;;;;;;3.72;1.50;;;11.10;99.90;;;;;;2066217;28;20274;-71
2023/03/14 05:36:51;;;;;;;5.72;1.77;;;11.10;99.90;;;;;;2078908;28;20029;-71
2023/03/14 05:38:02;;;;;;;;;;;11.10;99.90;;;;;;2080786;28;20036;-73